Time;durP1;ratioP1;P1;durP2;ratioP2;P2;SDS_P1;SDS_P2;PMS_P1;PMS_P2;Temp;Humidity;BMP_temperature;BMP_pressure;BME280_temperature;BME280_humidity;BME280_pressure;Samples;Min_cycle;Max_cycle;Signal;HPM_P1;HPM_P2
2023/12/03 00:01:15;;;;;;;39.17;21.35;;;3.70;99.90;;;2.85;100.00;101416.53;4184072;28;20070;-83
2023/12/03 00:03:16;;;;;;;34.28;18.98;;;3.70;99.90;;;2.88;100.00;101408.53;4184957;28;20037;-84
2023/12/03 00:05:17;;;;;;;35.50;18.33;;;3.80;99.90;;;2.86;100.00;101399.13;4156977;28;20026;-85
2023/12/03 00:07:18;;;;;;;39.60;22.58;;;3.80;99.90;;;2.88;100.00;101402.47;4152541;28;20033;-81
2023/12/03 00:09:19;;;;;;;40.13;20.42;;;3.70;99.90;;;2.87;100.00;101401.63;4168672;28;20049;-81
2023/12/03 00:11:19;;;;;;;39.15;20.02;;;3.70;99.90;;;2.85;100.00;101382.66;4152211;28;20030;-81
2023/12/03 00:13:20;;;;;;;36.47;20.27;;;3.80;99.90;;;2.89;100.00;101381.53;4185022;28;20025;-81
2023/12/03 00:15:24;;;;;;;39.25;20.48;;;3.80;99.90;;;2.91;100.00;101378.84;4148725;28;20053;-81
2023/12/03 00:17:25;;;;;;;37.03;21.27;;;3.80;99.90;;;2.91;100.00;101374.47;4150325;28;20022;-81
2023/12/03 00:19:26;;;;;;;35.78;21.45;;;3.80;99.90;;;2.91;100.00;101368.41;4153836;28;20505;-81
2023/12/03 00:21:27;;;;;;;40.80;20.95;;;3.80;99.90;;;2.91;100.00;101371.03;4151922;28;20030;-81
2023/12/03 00:23:28;;;;;;;45.03;21.80;;;3.80;99.90;;;2.91;100.00;101363.19;4152494;28;20109;-81
2023/12/03 00:25:29;;;;;;;46.85;25.80;;;3.90;99.90;;;3.01;100.00;101379.97;4185252;28;20033;-80
2023/12/03 00:27:29;;;;;;;45.55;24.20;;;3.90;99.90;;;3.04;100.00;101370.22;4153033;28;20485;-80
2023/12/03 00:29:30;;;;;;;43.88;21.92;;;3.90;99.90;;;3.04;100.00;101370.22;4153379;28;20033;-80
2023/12/03 00:31:34;;;;;;;47.28;26.10;;;3.90;99.90;;;3.04;100.00;101358.94;4153387;28;20045;-81
2023/12/03 00:33:35;;;;;;;48.53;24.85;;;4.00;99.90;;;3.08;100.00;101371.69;4152016;28;20056;-81
2023/12/03 00:35:35;;;;;;;46.08;23.08;;;4.00;99.90;;;3.10;100.00;101362.00;4157295;28;20033;-80
2023/12/03 00:37:36;;;;;;;46.38;23.33;;;4.00;99.90;;;3.14;100.00;101358.28;4153246;28;20547;-81
2023/12/03 00:39:37;;;;;;;43.78;22.33;;;4.00;99.90;;;3.08;100.00;101345.63;4153124;28;20041;-81
2023/12/03 00:41:38;;;;;;;40.55;22.17;;;4.00;99.90;;;3.17;100.00;101368.50;4151924;28;20038;-81
2023/12/03 00:43:39;;;;;;;45.78;22.85;;;4.10;99.90;;;3.19;100.00;101369.28;4152834;28;20025;-81
2023/12/03 00:45:40;;;;;;;40.40;22.20;;;4.10;99.90;;;3.18;100.00;101362.38;4155288;28;20020;-80
2023/12/03 00:47:41;;;;;;;41.97;22.50;;;4.10;99.90;;;3.19;100.00;101373.66;4161210;28;20026;-80
2023/12/03 00:49:41;;;;;;;45.75;22.10;;;4.10;99.90;;;3.19;100.00;101377.09;4153024;28;20456;-80
2023/12/03 00:51:42;;;;;;;41.95;21.45;;;4.10;99.90;;;3.21;100.00;101377.84;4153406;28;20017;-80
2023/12/03 00:53:44;;;;;;;41.30;21.25;;;4.10;99.90;;;3.22;100.00;101384.72;4153107;28;20033;-80
2023/12/03 00:55:45;;;;;;;38.92;22.30;;;4.10;99.90;;;3.19;100.00;101374.50;4151835;28;20033;-80
2023/12/03 00:57:46;;;;;;;43.00;20.75;;;4.20;99.90;;;3.21;100.00;101382.19;4151557;28;20029;-80
2023/12/03 00:59:46;;;;;;;44.85;22.35;;;4.20;99.90;;;3.24;100.00;101380.25;4151539;28;20516;-81
2023/12/03 01:01:47;;;;;;;42.47;21.00;;;4.20;99.90;;;3.32;100.00;101384.97;4152982;28;20025;-81
2023/12/03 01:03:48;;;;;;;41.60;20.77;;;4.20;99.90;;;3.28;100.00;101379.16;4151837;28;20112;-81
2023/12/03 01:05:49;;;;;;;42.40;21.33;;;4.20;99.90;;;3.29;100.00;101382.56;4151627;28;20033;-81
2023/12/03 01:07:50;;;;;;;44.70;22.30;;;4.20;99.90;;;3.34;100.00;101394.38;4184344;28;20025;-81
2023/12/03 01:09:50;;;;;;;43.75;20.95;;;4.20;99.90;;;3.34;100.00;101389.16;4151599;28;20034;-80
2023/12/03 01:11:55;;;;;;;42.17;21.05;;;4.30;99.90;;;3.32;100.00;101391.03;4151494;28;20505;-81
2023/12/03 01:13:56;;;;;;;46.53;22.13;;;4.30;99.90;;;3.31;100.00;101397.22;4152498;28;20033;-80
2023/12/03 01:15:57;;;;;;;42.13;22.38;;;4.20;99.90;;;3.30;100.00;101415.53;4152531;28;20092;-80
2023/12/03 01:17:58;;;;;;;43.22;21.08;;;4.20;99.90;;;3.24;100.00;101437.59;4154437;28;20022;-80
2023/12/03 01:19:59;;;;;;;40.90;22.25;;;4.20;99.90;;;3.31;100.00;101449.34;4151370;28;20041;-80
2023/12/03 01:22:00;;;;;;;41.13;20.50;;;4.20;99.90;;;3.28;100.00;101433.91;4152624;28;20383;-80
2023/12/03 01:24:00;;;;;;;47.75;23.42;;;4.20;99.90;;;3.31;100.00;101419.84;4152469;28;20366;-81
2023/12/03 01:26:01;;;;;;;41.22;21.77;;;4.20;99.90;;;3.31;100.00;101410.25;4152856;28;20060;-81
2023/12/03 01:28:02;;;;;;;43.53;22.17;;;4.20;99.90;;;3.34;100.00;101410.03;4151241;28;20050;-81
2023/12/03 01:30:04;;;;;;;42.10;22.83;;;4.20;99.90;;;3.32;100.00;101391.03;4152610;28;20037;-81
2023/12/03 01:32:05;;;;;;;44.47;20.60;;;4.20;99.90;;;3.35;100.00;101390.00;4151939;28;20040;-81
2023/12/03 01:34:06;;;;;;;45.95;21.42;;;4.30;99.90;;;3.38;100.00;101381.16;4183826;28;20037;-80
2023/12/03 01:36:08;;;;;;;39.28;19.95;;;4.30;99.90;;;3.43;100.00;101384.34;4184163;28;20020;-81
2023/12/03 01:38:08;;;;;;;39.78;19.77;;;4.40;99.90;;;3.46;100.00;101378.94;4151159;28;20092;-81
2023/12/03 01:40:10;;;;;;;36.20;18.92;;;4.40;99.90;;;3.47;100.00;101384.03;4152197;28;20030;-81
2023/12/03 01:42:11;;;;;;;37.38;17.98;;;4.40;99.90;;;3.51;100.00;101387.31;4152984;28;20022;-81
2023/12/03 01:44:12;;;;;;;32.30;18.60;;;4.40;99.90;;;3.54;100.00;101382.75;4161394;28;20022;-80
2023/12/03 01:46:14;;;;;;;37.10;19.05;;;4.40;99.90;;;3.52;100.00;101383.78;4152392;28;20097;-81
2023/12/03 01:48:16;;;;;;;38.05;18.88;;;4.50;99.90;;;3.55;100.00;101381.81;4150955;28;20026;-81
2023/12/03 01:50:18;;;;;;;36.25;18.42;;;4.40;99.90;;;3.58;100.00;101380.78;4151322;28;20022;-81
2023/12/03 01:52:19;;;;;;;37.20;17.67;;;4.50;99.90;;;3.62;100.00;101382.25;4151246;28;20034;-81
2023/12/03 01:54:20;;;;;;;41.22;19.25;;;4.50;99.90;;;3.60;100.00;101384.97;4151131;28;20034;-81
2023/12/03 01:56:21;;;;;;;37.17;19.30;;;4.50;99.90;;;3.62;100.00;101385.69;4152122;28;20088;-81
2023/12/03 01:58:22;;;;;;;35.60;19.50;;;4.50;99.90;;;3.64;100.00;101378.63;4150912;28;20501;-81
2023/12/03 02:00:23;;;;;;;31.80;16.88;;;4.50;99.90;;;3.63;100.00;101371.72;4151073;28;20030;-81
2023/12/03 02:02:24;;;;;;;39.67;19.70;;;4.50;99.90;;;3.65;100.00;101376.84;4152342;28;20048;-81
2023/12/03 02:04:25;;;;;;;42.25;20.15;;;4.50;99.90;;;3.68;100.00;101379.25;4152325;28;20053;-81
2023/12/03 02:06:26;;;;;;;43.90;19.23;;;4.60;99.90;;;3.67;100.00;101372.38;4152024;28;20030;-80
2023/12/03 02:08:27;;;;;;;34.97;18.50;;;4.60;99.90;;;3.67;100.00;101375.00;4152319;28;20018;-81
2023/12/03 02:10:28;;;;;;;36.55;19.10;;;4.60;99.90;;;3.68;100.00;101376.66;4152227;28;20026;-81
2023/12/03 02:12:28;;;;;;;44.88;21.48;;;4.60;99.90;;;3.71;100.00;101376.44;4166783;28;20026;-81
2023/12/03 02:14:29;;;;;;;40.05;20.60;;;4.60;99.90;;;3.65;100.00;101372.47;4150872;28;20057;-81
2023/12/03 02:16:35;;;;;;;38.72;20.63;;;4.50;99.90;;;3.64;100.00;101383.00;4153783;28;20045;-81
2023/12/03 02:18:36;;;;;;;52.22;22.02;;;4.60;99.90;;;3.63;100.00;101373.50;4150826;28;20041;-82
2023/12/03 02:20:36;;;;;;;44.13;21.73;;;4.50;99.90;;;3.66;100.00;101368.94;4150809;28;20061;-81
2023/12/03 02:22:56;;;;;;;41.78;19.58;;;4.50;99.90;;;3.64;100.00;101368.19;4150672;28;20455;-81
2023/12/03 02:24:57;;;;;;;42.35;21.55;;;4.50;99.90;;;3.62;100.00;101364.81;4151064;28;20022;-81
2023/12/03 02:26:58;;;;;;;46.45;20.45;;;4.50;99.90;;;3.63;100.00;101373.50;4152099;28;20032;-81
2023/12/03 02:28:59;;;;;;;36.03;19.65;;;4.50;99.90;;;3.63;100.00;101363.06;4151696;28;20129;-81
2023/12/03 02:31:00;;;;;;;41.90;19.95;;;4.60;99.90;;;3.67;100.00;101364.56;4152158;28;20033;-82
2023/12/03 02:33:02;;;;;;;41.60;20.38;;;4.50;99.90;;;3.64;100.00;101365.59;4166909;28;20026;-82
2023/12/03 02:35:03;;;;;;;40.40;20.50;;;4.50;99.90;;;3.61;100.00;101359.72;4151943;28;20109;-81
2023/12/03 02:37:04;;;;;;;37.78;19.48;;;4.50;99.90;;;3.60;100.00;101358.03;4155320;28;20060;-82
2023/12/03 02:39:05;;;;;;;38.45;20.05;;;4.50;99.90;;;3.59;100.00;101375.44;4162979;28;20049;-81
2023/12/03 02:41:07;;;;;;;39.92;19.33;;;4.50;99.90;;;3.58;100.00;101367.75;4150696;28;20022;-81
2023/12/03 02:43:08;;;;;;;44.38;20.35;;;4.50;99.90;;;3.56;100.00;101373.03;4166835;28;20030;-82
2023/12/03 02:45:10;;;;;;;42.10;20.88;;;4.50;99.90;;;3.54;100.00;101374.91;4154173;28;20113;-82
2023/12/03 02:47:11;;;;;;;41.60;19.67;;;4.40;99.90;;;3.51;100.00;101369.88;4156401;28;20026;-81
2023/12/03 02:49:12;;;;;;;41.40;20.15;;;4.50;99.90;;;3.55;100.00;101354.88;4153804;28;20033;-81
2023/12/03 02:51:12;;;;;;;39.72;20.52;;;4.50;99.90;;;3.55;100.00;101367.94;4154943;28;20041;-81
2023/12/03 02:53:13;;;;;;;45.40;21.40;;;4.50;99.90;;;3.54;100.00;101356.66;4155129;28;20401;-81
2023/12/03 02:55:14;;;;;;;41.83;20.40;;;4.40;99.90;;;3.53;100.00;101348.91;4153701;28;20034;-81
2023/12/03 02:57:15;;;;;;;42.97;19.08;;;4.40;99.90;;;3.46;100.00;101342.44;4153357;28;20041;-81
2023/12/03 02:59:16;;;;;;;40.10;19.48;;;4.40;99.90;;;3.35;100.00;101343.91;4153383;28;20481;-81
2023/12/03 03:01:17;;;;;;;41.60;19.77;;;4.30;99.90;;;3.29;100.00;101333.88;4186491;28;20017;-81
2023/12/03 03:03:17;;;;;;;42.05;20.38;;;4.30;99.90;;;3.22;100.00;101342.19;4153483;28;20030;-81
2023/12/03 03:05:18;;;;;;;39.78;21.00;;;4.20;99.90;;;3.14;100.00;101331.38;4154722;28;20026;-81
2023/12/03 03:07:19;;;;;;;41.00;20.75;;;4.10;99.90;;;3.16;100.00;101338.19;4153368;28;20040;-81
2023/12/03 03:09:20;;;;;;;41.00;21.00;;;4.10;99.90;;;3.13;100.00;101327.94;4154461;28;20034;-81
2023/12/03 03:11:21;;;;;;;50.30;21.88;;;4.10;99.90;;;3.12;100.00;101328.03;4154639;28;20041;-81
2023/12/03 03:13:21;;;;;;;45.55;19.98;;;4.00;99.90;;;3.10;100.00;101328.13;4154356;28;20105;-81
2023/12/03 03:15:22;;;;;;;43.20;18.90;;;4.00;99.90;;;3.11;100.00;101321.97;4153160;28;20050;-81
2023/12/03 03:17:23;;;;;;;45.13;21.17;;;4.00;99.90;;;3.13;100.00;101322.72;4153935;28;20045;-81
2023/12/03 03:19:24;;;;;;;43.65;21.33;;;4.00;99.90;;;3.18;100.00;101330.25;4154303;28;20465;-81
2023/12/03 03:21:25;;;;;;;49.60;23.15;;;4.10;99.90;;;3.24;100.00;101325.50;4154679;28;20481;-82
2023/12/03 03:23:25;;;;;;;48.90;21.90;;;4.10;99.90;;;3.28;100.00;101327.00;4153322;28;20022;-81
2023/12/03 03:25:26;;;;;;;46.38;21.33;;;4.20;99.90;;;3.34;100.00;101331.00;4154335;28;20025;-82
2023/12/03 03:27:27;;;;;;;44.55;20.48;;;4.20;99.90;;;3.38;100.00;101318.56;4154196;28;20033;-82
2023/12/03 03:29:28;;;;;;;45.85;21.08;;;4.20;99.90;;;3.42;100.00;101325.28;4154364;28;20034;-81
2023/12/03 03:31:29;;;;;;;45.10;22.27;;;4.30;99.90;;;3.40;100.00;101316.72;4154350;28;20030;-81
2023/12/03 03:33:30;;;;;;;43.97;21.27;;;4.30;99.90;;;3.43;100.00;101314.78;4154133;28;20030;-80
2023/12/03 03:35:30;;;;;;;45.05;21.58;;;4.30;99.90;;;3.45;100.00;101318.13;4154055;28;20061;-80
2023/12/03 03:37:31;;;;;;;46.00;20.92;;;4.40;99.90;;;3.50;100.00;101309.97;4153087;28;20026;-80
2023/12/03 03:39:32;;;;;;;42.83;20.77;;;4.40;99.90;;;3.52;100.00;101305.53;4153167;28;20022;-81
2023/12/03 03:41:33;;;;;;;46.67;21.27;;;4.40;99.90;;;3.52;100.00;101310.75;4154130;28;20079;-81
2023/12/03 03:43:34;;;;;;;42.85;20.42;;;4.40;99.90;;;3.49;100.00;101316.16;4152678;28;20038;-80
2023/12/03 03:45:35;;;;;;;39.67;19.50;;;4.40;99.90;;;3.47;100.00;101307.56;4153177;28;20026;-80
2023/12/03 03:47:36;;;;;;;45.17;21.27;;;4.40;99.90;;;3.44;100.00;101320.78;4185835;28;20084;-81
2023/12/03 03:49:36;;;;;;;41.90;19.63;;;4.40;99.90;;;3.42;100.00;101312.25;4155757;28;20022;-80
2023/12/03 03:51:37;;;;;;;43.40;19.58;;;4.40;99.90;;;3.45;100.00;101317.28;4152997;28;20524;-81
2023/12/03 03:53:38;;;;;;;39.15;19.70;;;4.30;99.90;;;3.44;100.00;101321.63;4152846;28;20026;-81
2023/12/03 03:55:39;;;;;;;39.42;19.35;;;4.40;99.90;;;3.48;100.00;101328.34;4135582;28;20088;-80
2023/12/03 03:57:40;;;;;;;40.92;20.45;;;4.40;99.90;;;3.50;100.00;101331.69;4153568;28;20060;-81
2023/12/03 03:59:44;;;;;;;43.03;21.33;;;4.40;99.90;;;3.55;100.00;101334.03;4185365;28;20037;-81
2023/12/03 04:01:45;;;;;;;44.13;20.08;;;4.50;99.90;;;3.56;100.00;101327.84;4153924;28;20037;-81
2023/12/03 04:03:46;;;;;;;41.78;19.35;;;4.40;99.90;;;3.57;100.00;101325.16;4152523;28;20125;-81
2023/12/03 04:05:47;;;;;;;35.80;18.00;;;4.50;99.90;;;3.57;100.00;101316.50;4153755;28;20022;-81
2023/12/03 04:07:47;;;;;;;34.65;16.70;;;4.50;99.90;;;3.63;100.00;101318.72;4152400;28;20038;-81
2023/12/03 04:09:48;;;;;;;41.83;19.25;;;4.50;99.90;;;3.61;100.00;101325.81;4153766;28;20026;-81
2023/12/03 04:11:49;;;;;;;38.08;18.38;;;4.50;99.90;;;3.64;100.00;101331.69;4153552;28;20039;-81
2023/12/03 04:13:50;;;;;;;39.30;19.42;;;4.50;99.90;;;3.67;100.00;101338.47;4152300;28;20026;-81
2023/12/03 04:15:51;;;;;;;33.47;17.05;;;4.60;99.90;;;3.71;100.00;101339.94;4152303;28;20050;-80
2023/12/03 04:17:52;;;;;;;38.40;18.55;;;4.60;99.90;;;3.72;100.00;101337.22;4153589;28;20022;-81
2023/12/03 04:19:53;;;;;;;36.05;18.15;;;4.60;99.90;;;3.74;100.00;101331.91;4153461;28;20033;-81
2023/12/03 04:21:53;;;;;;;34.95;17.65;;;4.60;99.90;;;3.77;100.00;101329.09;4153589;28;20539;-81
2023/12/03 04:23:55;;;;;;;38.97;17.67;;;4.60;99.90;;;3.77;100.00;101329.94;4153420;28;20383;-81
2023/12/03 04:25:56;;;;;;;33.63;17.25;;;4.60;99.90;;;3.78;100.00;101329.03;4155266;28;20026;-81
2023/12/03 04:27:57;;;;;;;36.25;18.85;;;4.70;99.90;;;3.75;100.00;101325.75;4163862;28;20036;-81
2023/12/03 04:29:58;;;;;;;36.85;17.55;;;4.70;99.90;;;3.77;100.00;101324.72;4152299;28;20034;-81
2023/12/03 04:31:59;;;;;;;39.65;18.75;;;4.70;99.90;;;3.79;100.00;101342.91;4152145;28;20029;-81
2023/12/03 04:34:00;;;;;;;38.55;18.10;;;4.70;99.90;;;3.82;100.00;101347.94;4184754;28;20025;-81
2023/12/03 04:36:00;;;;;;;33.08;18.35;;;4.70;99.90;;;3.82;100.00;101347.94;4153357;28;20033;-81
2023/12/03 04:38:01;;;;;;;35.90;17.05;;;4.70;99.90;;;3.83;100.00;101344.38;4153219;28;20088;-81
2023/12/03 04:40:03;;;;;;;33.03;16.73;;;4.70;99.90;;;3.85;100.00;101353.75;4153118;28;20038;-81
2023/12/03 04:42:04;;;;;;;35.53;16.83;;;4.70;99.90;;;3.85;100.00;101351.16;4153094;28;20018;-81
2023/12/03 04:44:05;;;;;;;33.75;18.48;;;4.70;99.90;;;3.86;100.00;101346.78;4151994;28;20030;-81
2023/12/03 04:46:07;;;;;;;36.97;17.80;;;4.70;99.90;;;3.86;100.00;101345.00;4152234;28;20112;-81
2023/12/03 04:48:08;;;;;;;37.08;16.90;;;4.70;99.90;;;3.86;100.00;101342.41;4168101;28;20083;-81
2023/12/03 04:50:08;;;;;;;40.95;17.95;;;4.80;99.90;;;3.91;100.00;101334.28;4151801;28;20034;-80
2023/12/03 04:52:09;;;;;;;31.42;17.33;;;4.80;99.90;;;3.90;100.00;101338.66;4153733;28;20084;-81
2023/12/03 04:54:10;;;;;;;37.30;17.15;;;4.80;99.90;;;3.90;100.00;101330.00;4151934;28;20026;-81
2023/12/03 04:56:11;;;;;;;37.63;18.17;;;4.80;99.90;;;3.94;100.00;101326.25;4154040;28;20034;-81
2023/12/03 04:58:12;;;;;;;37.05;17.08;;;4.80;99.90;;;3.91;100.00;101323.84;4152713;28;20552;-81
2023/12/03 05:00:13;;;;;;;35.13;17.95;;;4.80;99.90;;;3.87;100.00;101327.59;4151871;28;20036;-81
2023/12/03 05:02:14;;;;;;;31.25;17.80;;;4.80;99.90;;;3.86;100.00;101328.50;4151441;28;20028;-81
2023/12/03 05:04:15;;;;;;;37.75;18.73;;;4.80;99.90;;;3.81;100.00;101323.59;4152849;28;20030;-81
2023/12/03 05:06:16;;;;;;;36.25;18.13;;;4.80;99.90;;;3.85;100.00;101319.03;4162784;28;20031;-81
2023/12/03 05:08:17;;;;;;;37.72;18.63;;;4.80;99.90;;;3.88;100.00;101321.44;4151851;28;20018;-81
2023/12/03 05:10:18;;;;;;;39.83;18.50;;;4.80;99.90;;;3.87;100.00;101314.53;4152813;28;20034;-81
2023/12/03 05:12:19;;;;;;;35.85;17.50;;;4.80;99.90;;;3.90;100.00;101312.56;4134789;28;20029;-80
2023/12/03 05:14:20;;;;;;;29.20;16.45;;;4.80;99.90;;;3.90;100.00;101315.19;4152618;28;20514;-81
2023/12/03 05:16:21;;;;;;;28.38;15.30;;;4.80;99.90;;;3.89;100.00;101300.44;4161447;28;20041;-81
2023/12/03 05:18:22;;;;;;;31.20;15.95;;;4.80;99.90;;;3.92;100.00;101308.06;4151555;28;20109;-81
2023/12/03 05:20:23;;;;;;;33.40;16.92;;;4.80;99.90;;;3.96;100.00;101311.34;4151405;28;20029;-82
2023/12/03 05:22:24;;;;;;;34.97;17.40;;;4.90;99.90;;;3.96;100.00;101303.50;4178014;28;20017;-82
2023/12/03 05:24:26;;;;;;;27.60;15.93;;;4.80;99.90;;;3.98;100.00;101306.84;4151750;28;20428;-82
2023/12/03 05:26:26;;;;;;;34.05;18.40;;;4.90;99.90;;;3.95;100.00;101300.97;4159472;28;20086;-82
2023/12/03 05:28:27;;;;;;;40.92;19.13;;;4.90;99.90;;;3.99;100.00;101302.47;4151193;28;20026;-82
2023/12/03 05:30:28;;;;;;;36.20;16.75;;;4.90;99.90;;;3.98;100.00;101300.78;4152521;28;20109;-81
2023/12/03 05:32:29;;;;;;;36.22;17.23;;;4.90;99.90;;;3.99;100.00;101300.69;4151306;28;20032;-81
2023/12/03 05:34:30;;;;;;;40.33;19.02;;;4.90;99.90;;;4.00;100.00;101285.88;4152572;28;20485;-81
2023/12/03 05:36:31;;;;;;;45.28;22.95;;;4.90;99.90;;;3.99;100.00;101274.59;4156198;28;20030;-82
2023/12/03 05:38:31;;;;;;;36.72;19.33;;;4.90;99.90;;;4.02;100.00;101277.00;4183958;28;20102;-82
2023/12/03 05:40:32;;;;;;;36.28;17.48;;;4.90;99.90;;;4.00;100.00;101278.88;4167837;28;20512;-82
2023/12/03 05:42:33;;;;;;;29.38;15.30;;;4.90;99.90;;;4.06;100.00;101294.13;4161746;28;20588;-81
2023/12/03 05:44:34;;;;;;;33.75;17.75;;;5.00;99.90;;;4.07;100.00;101294.94;4151174;28;20584;-81
2023/12/03 05:46:41;;;;;;;36.67;17.10;;;4.90;99.90;;;4.09;100.00;101298.31;4153778;28;20582;-81
2023/12/03 05:48:42;;;;;;;36.70;18.80;;;5.00;99.90;;;4.09;100.00;101299.13;4152221;28;20453;-81
2023/12/03 05:50:43;;;;;;;34.65;17.25;;;5.00;99.90;;;4.09;100.00;101296.53;4152397;28;20027;-81
2023/12/03 05:52:44;;;;;;;42.00;19.08;;;5.00;99.90;;;4.10;100.00;101284.31;4152725;28;20030;-81
2023/12/03 05:54:45;;;;;;;29.48;16.20;;;5.00;99.90;;;4.08;100.00;101284.44;4151104;28;20033;-81
2023/12/03 05:56:46;;;;;;;33.72;16.75;;;5.00;99.90;;;4.13;100.00;101305.00;4151279;28;20033;-81
2023/12/03 05:58:46;;;;;;;37.80;17.73;;;5.00;99.90;;;4.12;100.00;101303.34;4152184;28;20036;-81
2023/12/03 06:00:47;;;;;;;39.17;17.80;;;5.00;99.90;;;4.09;100.00;101299.13;4152174;28;20034;-81
2023/12/03 06:02:48;;;;;;;33.85;17.05;;;4.90;99.90;;;4.07;100.00;101285.34;4152594;28;20026;-81
2023/12/03 06:04:49;;;;;;;35.88;17.88;;;5.00;99.90;;;4.05;100.00;101281.19;4152936;28;20026;-81
2023/12/03 06:06:50;;;;;;;33.70;17.15;;;5.00;99.90;;;4.10;100.00;101287.75;4150925;28;20022;-81
2023/12/03 06:08:51;;;;;;;36.30;17.52;;;5.00;99.90;;;4.09;100.00;101282.66;4152248;28;20099;-81
2023/12/03 06:10:52;;;;;;;29.77;15.55;;;5.00;99.90;;;4.10;100.00;101279.94;4150762;28;20172;-81
2023/12/03 06:12:52;;;;;;;37.90;17.63;;;5.00;99.90;;;4.07;100.00;101264.47;4183275;28;20903;-82
2023/12/03 06:14:53;;;;;;;30.88;15.75;;;5.00;99.90;;;4.04;100.00;101264.66;4152512;28;20034;-81
2023/12/03 06:16:54;;;;;;;36.03;17.40;;;5.00;99.90;;;4.08;100.00;101271.38;4158601;28;20478;-81
2023/12/03 06:18:56;;;;;;;35.50;17.42;;;5.00;99.90;;;4.07;100.00;101269.69;4151498;28;20440;-81
2023/12/03 06:20:57;;;;;;;33.25;16.02;;;4.90;99.90;;;4.05;100.00;101276.78;4155170;28;20029;-81
2023/12/03 06:22:58;;;;;;;34.70;17.27;;;4.90;99.90;;;3.98;100.00;101272.91;4155551;28;20026;-81
2023/12/03 06:24:59;;;;;;;33.85;17.58;;;4.90;99.90;;;3.91;100.00;101266.44;4138678;28;20532;-81
2023/12/03 06:27:00;;;;;;;32.28;16.60;;;4.80;99.90;;;3.91;100.00;101274.25;4191275;28;20029;-81
2023/12/03 06:29:01;;;;;;;34.28;17.65;;;4.80;99.90;;;3.85;100.00;101275.47;4153931;28;20034;-81
2023/12/03 06:31:07;;;;;;;31.73;18.08;;;4.80;99.90;;;3.82;100.00;101278.28;4155508;28;20088;-81
2023/12/03 06:33:08;;;;;;;38.22;17.75;;;4.70;99.90;;;3.78;100.00;101274.22;4170198;28;20029;-81
2023/12/03 06:35:11;;;;;;;31.55;16.80;;;4.70;99.90;;;3.78;100.00;101279.44;4156109;28;20029;-81
2023/12/03 06:37:12;;;;;;;37.17;17.63;;;4.70;99.90;;;3.77;100.00;101279.53;4154401;28;20018;-81
2023/12/03 06:39:12;;;;;;;35.05;17.35;;;4.60;99.90;;;3.76;100.00;101277.88;4155125;28;20065;-81
2023/12/03 06:41:14;;;;;;;40.70;19.10;;;4.60;99.90;;;3.73;100.00;101278.06;4186717;28;20033;-81
2023/12/03 06:43:15;;;;;;;42.78;21.73;;;4.60;99.90;;;3.69;100.00;101272.22;4154866;28;20061;-80
2023/12/03 06:45:16;;;;;;;38.47;18.52;;;4.50;99.90;;;3.66;100.00;101272.41;4155152;28;20022;-81
2023/12/03 06:47:17;;;;;;;42.25;18.70;;;4.50;99.90;;;3.59;100.00;101267.66;4153977;28;20025;-81
2023/12/03 06:49:18;;;;;;;37.30;18.38;;;4.50;99.90;;;3.54;100.00;101265.38;4155045;28;20102;-81
2023/12/03 06:51:18;;;;;;;42.42;20.05;;;4.40;99.90;;;3.51;100.00;101275.16;4154979;28;20022;-81
2023/12/03 06:53:19;;;;;;;42.15;19.20;;;4.40;99.90;;;3.47;100.00;101277.13;4154832;28;20041;-81
2023/12/03 06:55:20;;;;;;;38.40;17.83;;;4.40;99.90;;;3.45;100.00;101272.94;4158322;28;20097;-81
2023/12/03 06:57:21;;;;;;;40.80;18.77;;;4.30;99.90;;;3.46;100.00;101261.59;4145019;28;20097;-81
2023/12/03 06:59:22;;;;;;;37.15;17.48;;;4.40;99.90;;;3.46;100.00;101262.41;4153696;28;20026;-81
2023/12/03 07:01:23;;;;;;;37.13;18.00;;;4.30;99.90;;;3.46;100.00;101266.78;4154689;28;20034;-81
2023/12/03 07:03:24;;;;;;;40.15;16.85;;;4.40;99.90;;;3.50;100.00;101268.25;4153657;28;20128;-81
2023/12/03 07:05:25;;;;;;;44.53;19.33;;;4.40;99.90;;;3.55;100.00;101271.44;4157447;28;20096;-81
2023/12/03 07:07:25;;;;;;;39.17;18.67;;;4.40;99.90;;;3.64;100.00;101269.06;4142799;28;20027;-81
2023/12/03 07:09:26;;;;;;;42.88;18.80;;;4.50;99.90;;;3.71;100.00;101266.88;4154566;28;20083;-81
2023/12/03 07:11:29;;;;;;;39.60;18.85;;;4.50;99.90;;;3.76;100.00;101249.19;4154866;28;20026;-81
2023/12/03 07:13:30;;;;;;;39.83;18.65;;;4.60;99.90;;;3.82;100.00;101243.56;4169615;28;20053;-81
2023/12/03 07:15:31;;;;;;;41.05;18.48;;;4.70;99.90;;;3.85;100.00;101252.00;4173965;28;20037;-81
2023/12/03 07:17:32;;;;;;;40.08;17.77;;;4.70;99.90;;;3.87;100.00;101251.91;4165916;28;20032;-81
2023/12/03 07:19:33;;;;;;;43.88;18.45;;;4.70;99.90;;;3.92;100.00;101257.66;4154542;28;20022;-80
2023/12/03 07:21:34;;;;;;;36.85;16.80;;;4.80;99.90;;;3.95;100.00;101257.44;4154597;28;20444;-81
2023/12/03 07:23:35;;;;;;;39.78;16.92;;;4.80;99.90;;;3.91;100.00;101243.75;4159396;28;20017;-81
2023/12/03 07:25:36;;;;;;;36.08;17.73;;;4.80;99.90;;;3.90;100.00;101249.09;4160715;28;20029;-81
2023/12/03 07:27:37;;;;;;;42.47;18.95;;;4.80;99.90;;;3.79;100.00;101241.16;4185842;28;20064;-81
2023/12/03 07:29:38;;;;;;;36.45;18.73;;;4.70;99.90;;;3.75;100.00;101242.28;4154376;28;20444;-81
2023/12/03 07:31:39;;;;;;;33.00;18.02;;;4.70;99.90;;;3.73;100.00;101250.19;4151887;28;20026;-82
2023/12/03 07:33:39;;;;;;;40.08;17.63;;;4.60;99.90;;;3.73;100.00;101254.59;4154086;28;20030;-82
2023/12/03 07:35:40;;;;;;;30.83;15.82;;;4.60;99.90;;;3.71;100.00;101253.84;4154592;28;20026;-82
2023/12/03 07:37:41;;;;;;;33.35;17.15;;;4.60;99.90;;;3.68;100.00;101246.19;4181445;28;20100;-82
2023/12/03 07:39:42;;;;;;;37.60;16.42;;;4.60;99.90;;;3.66;100.00;101250.69;4136639;28;20034;-81
2023/12/03 07:41:51;;;;;;;37.35;16.90;;;4.60;99.90;;;3.63;100.00;101253.50;4149472;28;20034;-82
2023/12/03 07:43:52;;;;;;;36.78;16.92;;;4.60;99.90;;;3.61;100.00;101256.22;4140648;28;20018;-81
2023/12/03 07:45:53;;;;;;;37.75;17.33;;;4.50;99.90;;;3.63;100.00;101253.50;4159907;28;20032;-79
2023/12/03 07:47:53;;;;;;;39.33;16.98;;;4.50;99.90;;;3.60;100.00;101245.88;4158521;28;20092;-82
2023/12/03 07:49:54;;;;;;;39.70;17.80;;;4.50;99.90;;;3.57;100.00;101243.47;4154119;28;20033;-81
2023/12/03 07:51:56;;;;;;;48.22;19.63;;;4.50;99.90;;;3.58;100.00;101247.75;4154964;28;20084;-80
2023/12/03 07:53:56;;;;;;;41.13;17.60;;;4.50;99.90;;;3.59;100.00;101241.59;4169091;28;20040;-79
2023/12/03 07:55:57;;;;;;;42.10;19.70;;;4.50;99.90;;;3.55;100.00;101242.72;4160286;28;20017;-79
2023/12/03 07:57:58;;;;;;;40.45;19.42;;;4.40;99.90;;;3.52;100.00;101235.09;4155321;28;20033;-80
2023/12/03 07:59:59;;;;;;;34.22;17.85;;;4.40;99.90;;;3.47;100.00;101232.78;4153643;28;20041;-80
2023/12/03 08:02:00;;;;;;;45.95;18.35;;;4.40;99.90;;;3.49;100.00;101240.53;4152506;28;20085;-80
2023/12/03 08:04:03;;;;;;;41.80;17.85;;;4.40;99.90;;;3.45;100.00;101226.84;4153758;28;20449;-80
2023/12/03 08:06:05;;;;;;;40.13;18.10;;;4.40;99.90;;;3.42;100.00;101220.97;4177508;28;20067;-81
2023/12/03 08:08:06;;;;;;;40.13;17.42;;;4.40;99.90;;;3.43;100.00;101230.47;4139812;28;20040;-81
2023/12/03 08:10:07;;;;;;;39.63;18.58;;;4.30;99.90;;;3.41;100.00;101227.13;4152427;28;20026;-79
2023/12/03 08:12:08;;;;;;;45.78;19.92;;;4.30;99.90;;;3.43;100.00;101226.09;4168459;28;20029;-80
2023/12/03 08:14:09;;;;;;;43.67;20.60;;;4.30;99.90;;;3.43;100.00;101222.66;4153572;28;20032;-80
2023/12/03 08:16:10;;;;;;;48.47;19.67;;;4.30;99.90;;;3.42;100.00;101218.38;4159201;28;20510;-80
2023/12/03 08:18:11;;;;;;;47.17;20.10;;;4.30;99.90;;;3.37;100.00;101216.06;4153665;28;20433;-80